Time;durP1;ratioP1;P1;durP2;ratioP2;P2;SDS_P1;SDS_P2;PMS_P1;PMS_P2;Temp;Humidity;BMP_temperature;BMP_pressure;BME280_temperature;BME280_humidity;BME280_pressure;Samples;Min_cycle;Max_cycle;Signal;HPM_P1;HPM_P2
2021/10/08 00:03:14;;;;;;;;;;;;;;;22.79;42.59;95360.66;5053273;23;21901;-62
2021/10/08 00:05:40;;;;;;;;;;;;;;;22.76;42.82;95356.94;4910227;29;19929;-62
2021/10/08 00:08:05;;;;;;;;;;;;;;;22.75;42.65;95347.31;4912326;29;19911;-62
2021/10/08 00:10:30;;;;;;;;;;;;;;;22.63;42.94;95336.91;4910091;29;19923;-62
2021/10/08 00:12:55;;;;;;;;;;;;;;;22.75;43.01;95360.16;4910827;29;19998;-62
2021/10/08 00:15:21;;;;;;;;;;;;;;;22.73;42.77;95351.75;4911604;29;19915;-62
2021/10/08 00:17:46;;;;;;;;;;;;;;;22.72;42.68;95355.72;4910895;29;19915;-62
2021/10/08 00:20:11;;;;;;;;;;;;;;;22.72;43.06;95361.16;4923598;29;19918;-63
2021/10/08 00:22:36;;;;;;;;;;;;;;;22.71;43.02;95360.41;4929926;29;19936;-62
2021/10/08 00:25:02;;;;;;;;;;;;;;;22.71;42.89;95348.78;4927637;29;19927;-62
2021/10/08 00:27:27;;;;;;;;;;;;;;;22.71;42.75;95343.34;4928975;29;19926;-62
2021/10/08 00:29:52;;;;;;;;;;;;;;;22.70;43.02;95342.59;4929592;29;19926;-62
2021/10/08 00:32:18;;;;;;;;;;;;;;;22.69;42.76;95351.25;4929862;29;19917;-62
2021/10/08 00:34:43;;;;;;;;;;;;;;;22.68;42.72;95350.53;4928379;29;19915;-62
2021/10/08 00:37:08;;;;;;;;;;;;;;;22.69;43.10;95352.00;4928821;29;19922;-62
2021/10/08 00:39:34;;;;;;;;;;;;;;;22.69;42.87;95340.38;4929940;29;20642;-62
2021/10/08 00:41:59;;;;;;;;;;;;;;;22.67;42.93;95346.31;4929780;29;20625;-62
2021/10/08 00:44:24;;;;;;;;;;;;;;;22.55;42.87;95330.47;4929537;29;19949;-62
2021/10/08 00:46:50;;;;;;;;;;;;;;;22.67;42.86;95331.97;4929396;29;19918;-62
2021/10/08 00:49:15;;;;;;;;;;;;;;;22.67;42.80;95342.84;4928352;29;19923;-62
2021/10/08 00:51:40;;;;;;;;;;;;;;;22.66;42.95;95342.13;4928901;29;19970;-62
2021/10/08 00:54:05;;;;;;;;;;;;;;;22.66;43.20;95346.81;4925908;29;20381;-62
2021/10/08 00:56:31;;;;;;;;;;;;;;;22.64;43.29;95338.41;4925634;29;19918;-62
2021/10/08 00:58:56;;;;;;;;;;;;;;;22.65;43.00;95334.44;4928771;29;19915;-62
2021/10/08 01:01:21;;;;;;;;;;;;;;;22.65;42.93;95334.44;4928805;29;19985;-62
2021/10/08 01:03:47;;;;;;;;;;;;;;;22.64;42.94;95338.41;4923247;29;19966;-62
2021/10/08 01:06:12;;;;;;;;;;;;;;;22.64;43.24;95338.41;4929205;29;20297;-62
2021/10/08 01:08:38;;;;;;;;;;;;;;;22.64;43.03;95335.69;4943576;29;19918;-62
2021/10/08 01:11:03;;;;;;;;;;;;;;;22.62;43.03;95325.28;4948987;29;19914;-62
2021/10/08 01:13:28;;;;;;;;;;;;;;;22.61;43.05;95333.94;4947597;29;20009;-62
2021/10/08 01:15:54;;;;;;;;;;;;;;;22.60;42.93;95313.41;4948335;29;19957;-61
2021/10/08 01:18:19;;;;;;;;;;;;;;;22.61;42.99;95328.50;4949855;29;19915;-61
2021/10/08 01:20:44;;;;;;;;;;;;;;;22.59;42.94;95325.53;4949122;29;20397;-62
2021/10/08 01:23:10;;;;;;;;;;;;;;;22.58;43.36;95329.50;4949608;29;20172;-61
2021/10/08 01:25:35;;;;;;;;;;;;;;;22.58;43.01;95340.38;4947703;29;19965;-62
2021/10/08 01:28:00;;;;;;;;;;;;;;;22.58;43.39;95356.72;4947393;29;20399;-61
2021/10/08 01:30:26;;;;;;;;;;;;;;;22.58;43.13;95341.13;4949217;29;20077;-62
2021/10/08 01:32:51;;;;;;;;;;;;;;;22.58;43.01;95346.56;4948382;29;19911;-61
2021/10/08 01:35:16;;;;;;;;;;;;;;;22.58;43.13;95332.22;4948188;29;19984;-62
2021/10/08 01:37:42;;;;;;;;;;;;;;;22.58;43.44;95329.50;4945840;29;20009;-62
2021/10/08 01:40:07;;;;;;;;;;;;;;;22.57;43.07;95328.00;4947653;29;19914;-62
2021/10/08 01:42:32;;;;;;;;;;;;;;;22.56;43.27;95315.66;4947194;29;19918;-62
2021/10/08 01:44:59;;;;;;;;;;;;;;;22.56;42.97;95310.19;4948196;29;19914;-62
2021/10/08 01:47:24;;;;;;;;;;;;;;;22.55;43.43;95309.44;4946502;29;19937;-63
2021/10/08 01:49:49;;;;;;;;;;;;;;;22.56;43.06;95315.66;4948266;29;20575;-62
2021/10/08 01:52:16;;;;;;;;;;;;;;;22.53;43.04;95316.63;4948284;29;19917;-62
2021/10/08 01:54:42;;;;;;;;;;;;;;;22.54;42.95;95312.66;4948571;29;19911;-62
2021/10/08 01:57:07;;;;;;;;;;;;;;;22.53;43.13;95311.94;4945949;29;19919;-62
2021/10/08 01:59:32;;;;;;;;;;;;;;;22.53;43.07;95311.94;4931021;29;19926;-62
2021/10/08 02:01:57;;;;;;;;;;;;;;;22.52;43.19;95320.59;4946019;29;19926;-62
2021/10/08 02:04:23;;;;;;;;;;;;;;;22.52;42.94;95320.59;4946941;29;20408;-62
2021/10/08 02:06:48;;;;;;;;;;;;;;;22.53;43.02;95316.63;4947202;28;20012;-62
2021/10/08 02:09:13;;;;;;;;;;;;;;;22.52;43.00;95320.59;4945715;29;19926;-62
2021/10/08 02:11:39;;;;;;;;;;;;;;;22.50;43.25;95333.97;4948171;29;19965;-62
2021/10/08 02:14:04;;;;;;;;;;;;;;;22.50;43.13;95328.50;4948476;29;19926;-62
2021/10/08 02:16:29;;;;;;;;;;;;;;;22.50;43.46;95329.25;4948160;29;20441;-63
2021/10/08 02:18:55;;;;;;;;;;;;;;;22.49;43.50;95322.31;4947117;29;19918;-63
2021/10/08 02:21:21;;;;;;;;;;;;;;;22.49;43.17;95327.03;4948444;29;20005;-63
2021/10/08 02:23:46;;;;;;;;;;;;;;;22.48;43.36;95314.66;4947548;29;19996;-63
2021/10/08 02:26:12;;;;;;;;;;;;;;;22.47;43.53;95307.75;4947020;29;20561;-63
2021/10/08 02:28:37;;;;;;;;;;;;;;;22.47;43.66;95313.19;4947124;29;19958;-63
2021/10/08 02:31:02;;;;;;;;;;;;;;;22.48;43.05;95314.66;4947677;29;19918;-63
2021/10/08 02:33:28;;;;;;;;;;;;;;;22.48;43.49;95296.34;4947821;29;20403;-64
2021/10/08 02:35:53;;;;;;;;;;;;;;;22.47;43.50;95313.19;4929644;29;19966;-63
2021/10/08 02:38:18;;;;;;;;;;;;;;;22.47;43.19;95313.19;4947603;29;19918;-63
2021/10/08 02:40:44;;;;;;;;;;;;;;;22.47;43.63;95318.63;4946863;29;19922;-63
2021/10/08 02:43:09;;;;;;;;;;;;;;;22.47;43.53;95313.19;4948167;28;19921;-63
2021/10/08 02:45:35;;;;;;;;;;;;;;;22.46;43.27;95314.41;4945419;28;19953;-63
2021/10/08 02:48:00;;;;;;;;;;;;;;;22.45;43.45;95310.94;4947733;29;19914;-63
2021/10/08 02:50:26;;;;;;;;;;;;;;;22.46;43.44;95306.25;4946772;29;19919;-63
2021/10/08 02:52:51;;;;;;;;;;;;;;;22.45;43.70;95299.31;4947541;29;20009;-63
2021/10/08 02:55:17;;;;;;;;;;;;;;;22.44;43.24;95300.56;4947899;29;20009;-63
2021/10/08 02:57:42;;;;;;;;;;;;;;;22.44;43.29;95292.41;4947920;29;19916;-63
2021/10/08 03:00:08;;;;;;;;;;;;;;;22.44;43.53;95303.28;4943850;29;19934;-63
2021/10/08 03:02:33;;;;;;;;;;;;;;;22.43;43.67;95302.56;4947288;29;19922;-63
2021/10/08 03:04:58;;;;;;;;;;;;;;;22.43;43.60;95301.78;4945925;29;19914;-63
2021/10/08 03:07:23;;;;;;;;;;;;;;;22.42;43.47;95311.22;4947728;29;19948;-63
2021/10/08 03:09:49;;;;;;;;;;;;;;;22.43;43.58;95301.78;4947027;29;20456;-63
2021/10/08 03:12:14;;;;;;;;;;;;;;;22.42;43.77;95311.94;4946873;29;20389;-63
2021/10/08 03:14:39;;;;;;;;;;;;;;;22.42;43.66;95305.78;4947305;29;19917;-62
2021/10/08 03:17:05;;;;;;;;;;;;;;;22.42;43.63;95311.22;4947432;29;20484;-63
2021/10/08 03:19:30;;;;;;;;;;;;;;;22.43;43.40;95301.78;4947171;28;20008;-63
2021/10/08 03:21:55;;;;;;;;;;;;;;;22.42;43.33;95311.22;4949442;29;20412;-64
2021/10/08 03:24:20;;;;;;;;;;;;;;;22.41;43.30;95309.72;4949862;29;19910;-63
2021/10/08 03:26:46;;;;;;;;;;;;;;;22.42;43.71;95305.78;4948880;29;20365;-63
2021/10/08 03:29:11;;;;;;;;;;;;;;;22.41;43.51;95304.28;4950712;29;19910;-63
2021/10/08 03:31:36;;;;;;;;;;;;;;;22.41;43.66;95299.56;4950107;29;19922;-63
2021/10/08 03:34:02;;;;;;;;;;;;;;;22.41;43.39;95305.00;4951014;29;19918;-63
2021/10/08 03:36:40;;;;;;;;;;;;;;;22.41;43.74;95305.00;4950634;29;19921;-63
2021/10/08 03:39:06;;;;;;;;;;;;;;;22.41;43.57;95309.72;4950230;29;19917;-63
2021/10/08 03:41:31;;;;;;;;;;;;;;;22.40;43.60;95308.22;4947750;29;19954;-63
2021/10/08 03:43:57;;;;;;;;;;;;;;;22.40;43.53;95302.78;4950780;29;19972;-63
2021/10/08 03:46:25;;;;;;;;;;;;;;;22.41;43.48;95298.84;4949124;29;19926;-63
2021/10/08 03:51:34;;;;;;;;;;;;;;;22.40;43.37;95308.22;4949712;29;19922;-63
2021/10/08 03:53:59;;;;;;;;;;;;;;;22.41;43.70;95293.38;4950694;29;19910;-63
2021/10/08 03:56:24;;;;;;;;;;;;;;;22.39;43.40;95295.88;4950339;29;19914;-63
2021/10/08 03:58:50;;;;;;;;;;;;;;;22.39;43.69;95301.31;4950412;29;19922;-63
2021/10/08 04:01:15;;;;;;;;;;;;;;;22.39;43.36;95312.19;4948480;29;19919;-63
2021/10/08 04:03:40;;;;;;;;;;;;;;;22.37;43.27;95314.66;4934447;29;19923;-63
2021/10/08 04:06:05;;;;;;;;;;;;;;;22.36;43.86;95307.75;4931020;29;19915;-63
2021/10/08 04:08:31;;;;;;;;;;;;;;;22.38;44.05;95310.72;4930528;29;19919;-62
2021/10/08 04:10:56;;;;;;;;;;;;;;;22.37;44.03;95320.09;4929747;29;19957;-63
2021/10/08 04:13:21;;;;;;;;;;;;;;;22.38;43.89;95313.44;4930712;29;19915;-63
2021/10/08 04:15:47;;;;;;;;;;;;;;;22.40;43.91;95313.66;4930280;29;19915;-63
2021/10/08 04:18:12;;;;;;;;;;;;;;;22.43;44.14;95318.88;4930361;29;19930;-62
2021/10/08 04:20:38;;;;;;;;;;;;;;;22.47;43.78;95318.63;4930251;29;20005;-62
2021/10/08 04:23:03;;;;;;;;;;;;;;;22.52;43.69;95326.03;4930249;29;19954;-63
2021/10/08 04:25:28;;;;;;;;;;;;;;;22.58;43.74;95324.06;4923591;29;19919;-62
2021/10/08 04:27:54;;;;;;;;;;;;;;;22.63;43.82;95320.56;4930329;29;19973;-62
2021/10/08 04:30:19;;;;;;;;;;;;;;;22.69;43.42;95324.03;4929776;29;20439;-62
2021/10/08 04:32:45;;;;;;;;;;;;;;;22.76;43.24;95320.81;4929835;29;19911;-63
2021/10/08 04:35:10;;;;;;;;;;;;;;;22.84;43.30;95313.63;4912915;29;20428;-62
2021/10/08 04:37:35;;;;;;;;;;;;;;;22.90;42.91;95313.13;4928498;29;20433;-63
2021/10/08 04:40:00;;;;;;;;;;;;;;;22.98;42.89;95319.56;4929782;29;19915;-63
2021/10/08 04:42:27;;;;;;;;;;;;;;;23.07;42.77;95322.00;4930012;29;20003;-63
2021/10/08 04:44:53;;;;;;;;;;;;;;;23.15;42.88;95333.88;4927932;29;19923;-62
2021/10/08 04:47:18;;;;;;;;;;;;;;;23.23;42.78;95334.84;4925022;29;19969;-63
2021/10/08 04:49:43;;;;;;;;;;;;;;;23.30;42.50;95328.88;4927040;29;19922;-63
2021/10/08 04:52:09;;;;;;;;;;;;;;;23.35;42.64;95319.19;4930179;29;19914;-64
2021/10/08 04:54:34;;;;;;;;;;;;;;;23.45;42.31;95323.84;4930164;29;20357;-65
2021/10/08 04:56:59;;;;;;;;;;;;;;;23.53;42.46;95330.28;4929498;29;19911;-65
2021/10/08 04:59:25;;;;;;;;;;;;;;;23.60;42.40;95324.28;4920864;29;19919;-70
2021/10/08 05:01:50;;;;;;;;;;;;;;;23.63;42.37;95326.00;4924151;29;19970;-64
2021/10/08 05:04:15;;;;;;;;;;;;;;;23.69;41.93;95316.59;4945237;29;19973;-65
2021/10/08 05:06:41;;;;;;;;;;;;;;;23.76;41.82;95320.78;4947700;29;19925;-65
2021/10/08 05:09:06;;;;;;;;;;;;;;;23.82;41.88;95313.31;4947973;29;19918;-62
2021/10/08 05:11:32;;;;;;;;;;;;;;;23.86;41.92;95298.88;4947855;29;20081;-64
2021/10/08 05:13:57;;;;;;;;;;;;;;;23.89;41.83;95303.31;4948631;29;19915;-64
2021/10/08 05:16:22;;;;;;;;;;;;;;;23.92;41.50;95307.03;4948295;29;19926;-64
2021/10/08 05:18:47;;;;;;;;;;;;;;;23.98;41.64;95305.03;4948106;29;19923;-64
2021/10/08 05:21:13;;;;;;;;;;;;;;;24.02;41.44;95314.41;4948296;29;20365;-65
2021/10/08 05:23:38;;;;;;;;;;;;;;;24.08;41.43;95309.66;4948601;29;19915;-64
2021/10/08 05:26:03;;;;;;;;;;;;;;;24.13;41.47;95316.31;4946234;29;20702;-64
2021/10/08 05:28:29;;;;;;;;;;;;;;;24.15;41.45;95325.47;4948355;29;19910;-64
2021/10/08 05:30:54;;;;;;;;;;;;;;;24.18;42.70;95313.53;4946372;29;19949;-62
2021/10/08 05:33:19;;;;;;;;;;;;;;;24.27;42.55;95315.22;4948521;29;19914;-62
2021/10/08 05:35:45;;;;;;;;;;;;;;;24.33;42.36;95313.97;4948256;29;19910;-62
2021/10/08 05:38:10;;;;;;;;;;;;;;;24.31;42.70;95310.97;4948247;29;19922;-63
2021/10/08 05:40:35;;;;;;;;;;;;;;;24.35;44.24;95322.41;4947060;29;19925;-62
2021/10/08 05:43:01;;;;;;;;;;;;;;;24.32;43.44;95323.38;4945172;28;19914;-63
2021/10/08 05:45:27;;;;;;;;;;;;;;;24.35;42.97;95319.66;4945346;29;20452;-68
2021/10/08 05:47:52;;;;;;;;;;;;;;;24.35;42.64;95328.59;4947345;29;20002;-63
2021/10/08 05:50:17;;;;;;;;;;;;;;;24.37;42.73;95325.34;4948530;29;19918;-62
2021/10/08 05:52:42;;;;;;;;;;;;;;;24.37;42.14;95320.63;4948138;29;19942;-63
2021/10/08 05:55:08;;;;;;;;;;;;;;;24.35;42.65;95322.41;4947714;29;19918;-62
2021/10/08 05:57:33;;;;;;;;;;;;;;;24.46;42.31;95322.31;4947973;29;20025;-66
2021/10/08 05:59:58;;;;;;;;;;;;;;;24.44;42.33;95319.34;4947737;29;20012;-64
2021/10/08 06:02:24;;;;;;;;;;;;;;;24.44;42.19;95313.88;4947308;29;19911;-62
2021/10/08 06:04:49;;;;;;;;;;;;;;;24.40;42.20;95307.97;4946501;29;19914;-63
2021/10/08 06:07:14;;;;;;;;;;;;;;;24.50;41.96;95301.66;4947767;29;20320;-63
2021/10/08 06:09:44;;;;;;;;;;;;;;;24.49;41.83;95310.38;4942669;29;19986;-63
2021/10/08 06:12:09;;;;;;;;;;;;;;;24.49;41.88;95304.91;4932900;29;20004;-63
2021/10/08 06:14:34;;;;;;;;;;;;;;;24.50;41.58;95318.03;4944638;29;20365;-62
2021/10/08 06:16:59;;;;;;;;;;;;;;;24.52;41.26;95314.81;4947827;29;20433;-63
2021/10/08 06:19:25;;;;;;;;;;;;;;;24.51;41.32;95318.78;4947517;29;19980;-63
2021/10/08 06:21:50;;;;;;;;;;;;;;;24.53;41.17;95310.84;4946473;29;20559;-63
2021/10/08 06:24:15;;;;;;;;;;;;;;;24.51;41.17;95314.06;4947783;29;20604;-63
2021/10/08 06:26:40;;;;;;;;;;;;;;;24.55;40.88;95308.31;4946749;29;19941;-63
2021/10/08 06:29:06;;;;;;;;;;;;;;;24.57;40.83;95322.19;4947755;29;20012;-62
2021/10/08 06:31:31;;;;;;;;;;;;;;;24.54;40.85;95312.31;4947610;29;20389;-62
2021/10/08 06:33:56;;;;;;;;;;;;;;;24.51;40.89;95318.78;4937605;29;19926;-63
2021/10/08 06:36:21;;;;;;;;;;;;;;;24.52;40.78;95325.72;4946711;29;20455;-63
2021/10/08 06:38:47;;;;;;;;;;;;;;;24.55;40.69;95324.72;4938999;29;19919;-62
2021/10/08 06:41:12;;;;;;;;;;;;;;;24.67;40.26;95320.63;4944333;29;19962;-62
2021/10/08 06:43:38;;;;;;;;;;;;;;;24.68;40.15;95333.03;4947951;29;20308;-62
2021/10/08 06:46:03;;;;;;;;;;;;;;;24.65;40.43;95328.59;4947294;29;20400;-62
2021/10/08 06:48:29;;;;;;;;;;;;;;;24.66;40.33;95330.06;4947378;29;19910;-62
2021/10/08 06:50:57;;;;;;;;;;;;;;;24.64;40.13;95332.59;4946597;29;20009;-62
2021/10/08 06:53:23;;;;;;;;;;;;;;;24.71;40.41;95342.94;4946995;28;19914;-62
2021/10/08 06:55:51;;;;;;;;;;;;;;;24.65;40.12;95334.81;4950861;29;19918;-61
2021/10/08 06:58:17;;;;;;;;;;;;;;;24.65;40.03;95339.50;4951112;29;20931;-61
2021/10/08 07:00:42;;;;;;;;;;;;;;;24.60;40.39;95327.41;4947586;29;20009;-63
2021/10/08 07:03:07;;;;;;;;;;;;;;;24.66;40.25;95346.47;4943123;29;19936;-61
2021/10/08 07:05:33;;;;;;;;;;;;;;;24.63;40.26;95347.47;4931753;29;19925;-61
2021/10/08 07:07:58;;;;;;;;;;;;;;;24.56;40.61;95343.31;4924901;29;19911;-62
2021/10/08 07:10:23;;;;;;;;;;;;;;;24.51;40.57;95340.63;4931423;29;19977;-61
2021/10/08 07:12:48;;;;;;;;;;;;;;;24.47;40.67;95351.09;4932390;29;19918;-63
2021/10/08 07:15:17;;;;;;;;;;;;;;;24.45;40.91;95353.56;4928740;29;20469;-63
2021/10/08 07:17:50;;;;;;;;;;;;;;;24.40;40.91;95348.91;4931102;29;19958;-62
2021/10/08 07:20:22;;;;;;;;;;;;;;;24.38;40.90;95359.59;4931580;29;19914;-62
2021/10/08 07:22:47;;;;;;;;;;;;;;;24.31;41.19;95349.19;4928551;29;20476;-64
2021/10/08 07:25:13;;;;;;;;;;;;;;;24.29;41.23;95362.63;4931010;29;19921;-64
2021/10/08 07:27:39;;;;;;;;;;;;;;;24.27;41.15;95365.09;4930959;29;20013;-63
2021/10/08 07:30:04;;;;;;;;;;;;;;;24.22;41.24;95363.16;4928504;29;19986;-64
2021/10/08 07:32:30;;;;;;;;;;;;;;;24.20;41.34;95375.81;4930544;29;19914;-63
2021/10/08 07:34:55;;;;;;;;;;;;;;;24.17;41.53;95376.81;4931535;29;19914;-64
2021/10/08 07:37:21;;;;;;;;;;;;;;;24.12;41.34;95375.59;4931725;29;19977;-64
2021/10/08 07:39:46;;;;;;;;;;;;;;;24.10;41.49;95378.09;4931583;29;19914;-64
2021/10/08 07:42:11;;;;;;;;;;;;;;;24.06;41.55;95387.81;4927547;29;19919;-64
2021/10/08 07:44:36;;;;;;;;;;;;;;;24.05;41.74;95392.53;4928095;29;19914;-64
2021/10/08 07:47:02;;;;;;;;;;;;;;;24.03;41.51;95400.44;4931331;29;19974;-64
2021/10/08 07:49:27;;;;;;;;;;;;;;;24.02;41.57;95404.44;4931454;29;20441;-64
2021/10/08 07:51:52;;;;;;;;;;;;;;;23.98;41.97;95403.97;4931500;29;19918;-64
2021/10/08 07:54:18;;;;;;;;;;;;;;;23.96;41.65;95406.47;4928268;29;19924;-64
2021/10/08 07:56:43;;;;;;;;;;;;;;;23.95;41.68;95410.41;4931444;29;19914;-64
2021/10/08 07:59:08;;;;;;;;;;;;;;;23.92;41.50;95416.88;4924684;29;19918;-63
2021/10/08 08:01:33;;;;;;;;;;;;;;;23.90;41.76;95424.84;4931417;29;20353;-63
2021/10/08 08:03:59;;;;;;;;;;;;;;;23.88;41.83;95432.78;4940770;29;19949;-63
2021/10/08 08:06:24;;;;;;;;;;;;;;;23.86;41.97;95434.53;4929136;29;20029;-63
2021/10/08 08:08:49;;;;;;;;;;;;;;;23.84;41.94;95441.72;4930823;29;19914;-63
2021/10/08 08:11:14;;;;;;;;;;;;;;;23.85;42.06;95432.31;4924999;29;19930;-64
2021/10/08 08:13:40;;;;;;;;;;;;;;;23.85;41.71;95448.66;4912794;29;20917;-64
2021/10/08 08:16:05;;;;;;;;;;;;;;;23.82;41.99;95444.22;4927735;29;19926;-64
2021/10/08 08:18:30;;;;;;;;;;;;;;;23.81;41.95;95442.72;4930549;29;19919;-64
2021/10/08 08:20:55;;;;;;;;;;;;;;;23.79;42.01;95429.59;4927945;29;19945;-63
2021/10/08 08:23:21;;;;;;;;;;;;;;;23.77;42.15;95436.81;4927794;29;19926;-63
2021/10/08 08:25:46;;;;;;;;;;;;;;;23.76;42.18;95441.50;4928947;29;20287;-62
2021/10/08 08:28:11;;;;;;;;;;;;;;;23.73;42.20;95444.50;4930140;29;19921;-62
2021/10/08 08:30:39;;;;;;;;;;;;;;;23.72;42.35;95440.28;4928323;29;19966;-62
2021/10/08 08:33:05;;;;;;;;;;;;;;;23.72;42.32;95451.19;4930765;28;19918;-62
2021/10/08 08:35:30;;;;;;;;;;;;;;;23.69;42.33;95452.19;4929081;29;20563;-62
2021/10/08 08:37:55;;;;;;;;;;;;;;;23.68;42.40;95450.72;4930478;29;19929;-62
2021/10/08 08:40:22;;;;;;;;;;;;;;;23.67;42.33;95465.59;4930928;29;19961;-62
2021/10/08 08:42:47;;;;;;;;;;;;;;;23.66;42.47;95464.84;4911574;29;19925;-62
2021/10/08 08:45:12;;;;;;;;;;;;;;;23.64;42.63;95477.47;4936867;29;19923;-62
2021/10/08 08:47:38;;;;;;;;;;;;;;;23.65;42.31;95478.97;4923412;29;19965;-62
2021/10/08 08:50:03;;;;;;;;;;;;;;;23.64;42.57;95488.41;4929232;29;20377;-62
2021/10/08 08:52:29;;;;;;;;;;;;;;;23.63;42.87;95481.41;4929006;29;19918;-61
2021/10/08 08:54:54;;;;;;;;;;;;;;;23.63;42.22;95470.50;4928724;28;19923;-62
2021/10/08 08:57:20;;;;;;;;;;;;;;;23.61;42.59;95483.91;4928413;29;19918;-62
2021/10/08 08:59:55;;;;;;;;;;;;;;;23.59;42.43;95475.50;4928491;29;19929;-63
2021/10/08 09:02:20;;;;;;;;;;;;;;;23.63;42.40;95470.50;4924650;29;19965;-67
2021/10/08 09:04:46;;;;;;;;;;;;;;;23.61;42.54;95462.09;4930658;29;19958;-67
2021/10/08 09:07:13;;;;;;;;;;;;;;;23.60;42.65;95455.91;4928193;29;20433;-69
2021/10/08 09:09:38;;;;;;;39.55;35.92;;;;;;;23.58;42.57;95452.91;4931908;29;20868;-69
2021/10/08 09:12:03;;;;;;;41.30;37.38;;;;;;;23.62;42.35;95439.78;4932452;29;20031;-62
2021/10/08 09:14:32;;;;;;;30.25;27.55;;;;;;;23.66;42.94;95436.81;4943731;29;20023;-63
2021/10/08 09:17:11;;;;;;;31.77;28.98;;;;;;;23.68;42.59;95435.09;4942983;28;20040;-62
2021/10/08 09:19:53;;;;;;;41.45;37.65;;;;;;;23.72;42.70;95434.81;4932192;29;20032;-63
2021/10/08 09:22:20;;;;;;;31.58;28.83;;;;;;;23.75;42.88;95439.28;4929302;29;20015;-65
2021/10/08 09:24:45;;;;;;;35.55;32.38;;;;;;;23.81;42.49;95437.25;4928411;29;20016;-64
2021/10/08 09:27:12;;;;;;;30.83;28.08;;;;;;;23.92;42.08;95443.44;4930119;29;20094;-66
2021/10/08 09:29:37;;;;;;;37.55;34.13;;;;;;;23.96;42.24;95450.09;4914117;29;20028;-68
2021/10/08 09:32:03;;;;;;;27.73;25.23;;;;;;;24.12;41.88;95446.53;4914609;29;20098;-66
2021/10/08 09:34:29;;;;;;;38.72;35.30;;;;;;;24.16;41.11;95440.84;4929691;29;20031;-65
2021/10/08 09:37:05;;;;;;;34.30;31.08;;;;;;;24.32;41.41;95454.41;4912510;29;20557;-65
2021/10/08 09:39:35;;;;;;;37.88;34.50;;;;;;;24.42;41.43;95447.41;4928304;29;20786;-66
2021/10/08 09:42:01;;;;;;;37.97;34.60;;;;;;;24.53;41.16;95452.81;4933066;29;20418;-64
2021/10/08 09:44:30;;;;;;;42.55;38.60;;;;;;;24.62;40.81;95445.06;4930794;29;20502;-65
2021/10/08 09:47:12;;;;;;;40.22;36.40;;;;;;;24.77;40.48;95455.63;4934282;29;20031;-65
2021/10/08 09:49:38;;;;;;;44.38;40.13;;;;;;;24.84;40.30;95450.34;4930052;29;20066;-64
2021/10/08 09:52:20;;;;;;;42.22;38.20;;;;;;;24.90;40.79;95449.06;4926951;29;20066;-61
2021/10/08 09:54:59;;;;;;;35.92;32.65;;;;;;;24.93;41.96;95448.06;4947028;29;20526;-61
2021/10/08 09:57:25;;;;;;;39.63;35.97;;;;;;;24.96;42.53;95463.44;4931617;29;20022;-63
2021/10/08 09:59:51;;;;;;;39.72;36.00;;;;;;;24.98;42.42;95460.94;4930361;29;20034;-62
2021/10/08 10:02:17;;;;;;;34.88;31.77;;;;;;;25.01;42.34;95536.44;4946360;29;20027;-62
2021/10/08 10:04:52;;;;;;;37.33;33.95;;;;;;;25.14;42.10;95468.28;4927035;29;20039;-63
2021/10/08 10:07:19;;;;;;;44.50;40.25;;;;;;;25.15;42.32;95458.09;4928315;29;20042;-62
2021/10/08 10:09:45;;;;;;;44.60;40.40;;;;;;;25.26;42.46;95458.75;4913269;29;20515;-64
2021/10/08 10:12:10;;;;;;;40.17;36.42;;;;;;;25.25;42.55;95446.31;4920621;29;20260;-65
2021/10/08 10:14:36;;;;;;;36.65;33.35;;;;;;;25.22;42.62;95447.34;4928546;29;20685;-64
2021/10/08 10:17:02;;;;;;;37.65;34.10;;;;;;;25.24;42.58;95428.41;4895373;29;20052;-65
2021/10/08 10:19:29;;;;;;;45.85;41.38;;;;;;;25.38;42.00;95422.56;4928086;29;20050;-67
2021/10/08 10:21:54;;;;;;;36.65;33.38;;;;;;;25.45;42.65;95421.25;4898254;29;20036;-64
2021/10/08 10:24:19;;;;;;;35.85;32.58;;;;;;;25.42;42.77;95416.81;4925605;29;20063;-65
2021/10/08 10:26:45;;;;;;;43.25;39.30;;;;;;;25.46;42.95;95422.75;4928178;29;20503;-63
2021/10/08 10:29:11;;;;;;;38.60;35.00;;;;;;;25.47;43.41;95418.75;4903707;29;20407;-63
2021/10/08 10:31:37;;;;;;;37.10;33.75;;;;;;;25.50;42.90;95423.19;4913809;29;20028;-64
2021/10/08 10:34:02;;;;;;;45.08;40.80;;;;;;;25.36;43.19;95391.53;4912880;29;20027;-65
2021/10/08 10:36:38;;;;;;;41.53;37.60;;;;;;;25.40;43.12;95364.63;4897918;29;20427;-64
2021/10/08 10:39:15;;;;;;;45.58;41.22;;;;;;;25.52;43.18;95382.41;4914254;29;20028;-63
2021/10/08 10:42:13;;;;;;;36.03;32.85;;;;;;;25.50;43.51;95374.72;4921858;29;20036;-64
2021/10/08 10:44:41;;;;;;;31.40;28.65;;;;;;;25.57;43.18;95367.91;4912508;29;20071;-63
2021/10/08 10:47:14;;;;;;;40.70;36.95;;;;;;;25.48;43.52;95371.72;4913451;29;20032;-63
2021/10/08 10:49:52;;;;;;;42.95;38.85;;;;;;;25.54;43.31;95388.81;4912392;29;20075;-63
2021/10/08 10:52:21;;;;;;;44.22;40.08;;;;;;;25.68;43.46;95389.69;4920879;29;20318;-63
2021/10/08 10:54:51;;;;;;;38.35;34.75;;;;;;;25.69;42.85;95391.19;4915616;29;20058;-63
2021/10/08 10:57:32;;;;;;;43.45;39.22;;;;;;;25.64;43.28;95394.69;4916314;29;20032;-62
2021/10/08 11:00:19;;;;;;;34.38;30.83;;;;;;;25.59;43.29;95404.44;4920569;29;20032;-63
2021/10/08 11:02:44;;;;;;;34.63;31.52;;;;;;;25.57;43.42;95406.22;4927277;29;20105;-62
2021/10/08 11:05:21;;;;;;;43.42;39.38;;;;;;;25.60;43.61;95394.25;4949887;29;20039;-63
2021/10/08 11:08:07;;;;;;;42.15;38.33;;;;;;;25.58;43.31;95391.28;4947224;29;20027;-63
2021/10/08 11:10:33;;;;;;;42.75;38.70;;;;;;;25.56;43.53;95399.25;4949527;29;20030;-61
2021/10/08 11:13:26;;;;;;;39.00;35.38;;;;;;;25.54;43.57;95393.56;4933389;29;20549;-63
2021/10/08 11:16:08;;;;;;;43.13;39.08;;;;;;;25.47;43.96;95402.31;4938500;29;20649;-62
2021/10/08 11:18:37;;;;;;;40.45;36.85;;;;;;;25.30;44.12;95399.03;4941670;29;20027;-63
2021/10/08 11:21:02;;;;;;;36.03;32.78;;;;;;;25.31;44.21;95406.00;4950425;29;20114;-62
2021/10/08 11:23:29;;;;;;;30.35;27.70;;;;;;;25.19;44.46;95393.69;4950528;29;20482;-64
2021/10/08 11:25:57;;;;;;;39.92;36.30;;;;;;;25.10;44.32;95385.81;4950169;29;20522;-62
2021/10/08 11:28:48;;;;;;;39.80;36.20;;;;;;;25.02;44.32;95384.91;4949336;29;20033;-62
2021/10/08 11:31:15;;;;;;;29.10;26.50;;;;;;;24.97;44.91;95387.66;4932933;29;20047;-63
2021/10/08 11:33:42;;;;;;;29.70;26.95;;;;;;;24.97;45.29;95406.78;4950332;29;20117;-63
2021/10/08 11:36:31;;;;;;;39.22;35.65;;;;;;;24.92;44.77;95397.38;4941806;29;20055;-63
2021/10/08 11:39:16;;;;;;;38.40;34.80;;;;;;;24.92;45.04;95391.91;4939702;29;20055;-63
2021/10/08 11:41:55;;;;;;;32.50;29.73;;;;;;;24.85;45.23;95392.47;4948950;28;20027;-63
2021/10/08 11:44:27;;;;;;;39.28;35.78;;;;;;;24.78;45.37;95402.47;4950360;29;20106;-62
2021/10/08 11:47:28;;;;;;;31.75;28.70;;;;;;;24.76;45.75;95399.53;4947843;29;20098;-63
2021/10/08 11:52:36;;;;;;;33.22;30.40;;;;;;;24.68;45.93;95398.56;4950229;29;20090;-63
2021/10/08 11:55:09;;;;;;;26.85;24.42;;;;;;;24.64;45.81;95389.94;4949810;29;20031;-63
2021/10/08 11:57:54;;;;;;;32.55;29.60;;;;;;;24.55;46.53;95392.97;4941835;29;20621;-62
2021/10/08 12:00:20;;;;;;;32.40;29.60;;;;;;;24.50;45.92;95393.75;4947557;29;20085;-62
2021/10/08 12:02:56;;;;;;;39.40;35.97;;;;;;;24.36;46.24;95386.66;4939298;29;20131;-62
2021/10/08 12:05:21;;;;;;;36.97;33.72;;;;;;;24.39;46.61;95399.28;4948580;29;20509;-63
2021/10/08 12:08:02;;;;;;;38.30;34.92;;;;;;;24.42;46.46;95398.28;4948755;29;20022;-62
2021/10/08 12:10:28;;;;;;;38.38;34.90;;;;;;;24.40;46.44;95406.22;4943808;29;20032;-62
2021/10/08 12:12:56;;;;;;;28.17;25.60;;;;;;;24.36;46.78;95400.28;4948177;29;20494;-62
2021/10/08 12:15:23;;;;;;;33.70;30.70;;;;;;;24.32;46.90;95405.28;4948856;29;20050;-63
2021/10/08 12:17:50;;;;;;;30.63;28.05;;;;;;;24.26;46.56;95390.91;4946116;29;20039;-63
2021/10/08 12:20:33;;;;;;;39.05;35.50;;;;;;;24.27;47.02;95392.38;4945754;29;20034;-62
2021/10/08 12:23:21;;;;;;;30.70;28.00;;;;;;;24.23;47.04;95397.38;4947887;29;20034;-63
2021/10/08 12:25:56;;;;;;;37.83;34.53;;;;;;;24.22;47.00;95395.16;4947472;29;20027;-63
2021/10/08 12:28:23;;;;;;;28.33;25.88;;;;;;;24.23;46.84;95397.38;4944523;29;20027;-64